Time;durP1;ratioP1;P1;durP2;ratioP2;P2;SDS_P1;SDS_P2;PMS_P1;PMS_P2;Temp;Humidity;BMP_temperature;BMP_pressure;BME280_temperature;BME280_humidity;BME280_pressure;Samples;Min_cycle;Max_cycle;Signal;HPM_P1;HPM_P2
2022/12/08 00:00:35;;;;;;;78.50;36.10;;;;;;;;;;5094143;28;20035;-78
2022/12/08 00:03:01;;;;;;;75.65;36.88;;;;;;;;;;5094003;28;20069;-78
2022/12/08 00:10:54;;;;;;;76.90;36.63;;;;;;;;;;5095001;28;20039;-77
2022/12/08 00:13:20;;;;;;;82.03;37.22;;;;;;;;;;5077025;28;20032;-79
2022/12/08 00:15:46;;;;;;;86.65;38.95;;;;;;;;;;5093960;28;20024;-79
2022/12/08 00:18:11;;;;;;;77.55;37.75;;;;;;;;;;5093363;28;20040;-78
2022/12/08 00:20:37;;;;;;;87.55;39.20;;;;;;;;;;5075856;28;20025;-78
2022/12/08 00:23:03;;;;;;;79.20;37.75;;;;;;;;;;5059687;28;20123;-77
2022/12/08 00:25:30;;;;;;;82.80;38.13;;;;;;;;;;5075826;28;20043;-79
2022/12/08 00:27:55;;;;;;;79.38;36.28;;;;;;;;;;5079820;28;20362;-79
2022/12/08 00:30:20;;;;;;;80.53;36.80;;;;;;;;;;5080169;28;20035;-79
2022/12/08 00:32:46;;;;;;;82.22;37.28;;;;;;;;;;5064812;28;20028;-79
2022/12/08 00:35:11;;;;;;;73.05;35.20;;;;;;;;;;5079898;28;20036;-79
2022/12/08 00:37:40;;;;;;;76.28;34.95;;;;;;;;;;5063215;28;20024;-79
2022/12/08 00:40:06;;;;;;;70.18;34.47;;;;;;;;;;5097919;28;20028;-78
2022/12/08 00:42:31;;;;;;;82.90;36.20;;;;;;;;;;5097782;28;20030;-79
2022/12/08 00:44:57;;;;;;;80.43;36.13;;;;;;;;;;5079684;28;20032;-79
2022/12/08 00:47:23;;;;;;;90.47;39.38;;;;;;;;;;5097482;28;20028;-80
2022/12/08 00:49:48;;;;;;;100.75;46.47;;;;;;;;;;5097293;28;20032;-79
2022/12/08 00:52:14;;;;;;;95.18;43.55;;;;;;;;;;5097929;28;20073;-79
2022/12/08 00:54:40;;;;;;;91.03;40.72;;;;;;;;;;5079628;28;20496;-78
2022/12/08 00:57:06;;;;;;;85.20;39.60;;;;;;;;;;5097388;28;20028;-78
2022/12/08 00:59:32;;;;;;;81.80;37.90;;;;;;;;;;5097695;28;20039;-78
2022/12/08 01:01:57;;;;;;;67.07;32.25;;;;;;;;;;5097499;28;20023;-78
2022/12/08 01:04:22;;;;;;;68.88;32.42;;;;;;;;;;5096288;28;20036;-78
2022/12/08 01:06:48;;;;;;;71.75;32.25;;;;;;;;;;5097458;28;20446;-79
2022/12/08 01:09:14;;;;;;;85.93;37.58;;;;;;;;;;5097443;28;20028;-79
2022/12/08 01:11:39;;;;;;;85.07;38.25;;;;;;;;;;5063101;28;20115;-79
2022/12/08 01:14:06;;;;;;;80.97;37.67;;;;;;;;;;5098847;28;20024;-79
2022/12/08 01:16:33;;;;;;;83.63;37.33;;;;;;;;;;5095910;28;20036;-78
2022/12/08 01:18:59;;;;;;;71.70;34.38;;;;;;;;;;5062480;28;20042;-79
2022/12/08 01:21:24;;;;;;;74.15;35.53;;;;;;;;;;5079424;28;20111;-79
2022/12/08 01:23:50;;;;;;;77.68;34.90;;;;;;;;;;5079560;28;20036;-78
2022/12/08 01:26:16;;;;;;;73.40;34.88;;;;;;;;;;5088882;28;20096;-79
2022/12/08 01:28:41;;;;;;;70.72;30.80;;;;;;;;;;5096999;28;20024;-79
2022/12/08 01:31:11;;;;;;;68.93;29.65;;;;;;;;;;5078790;28;20035;-79
2022/12/08 01:33:37;;;;;;;63.45;30.17;;;;;;;;;;5079932;28;20027;-79
2022/12/08 01:36:04;;;;;;;69.88;32.38;;;;;;;;;;5097920;28;20108;-79
2022/12/08 01:38:29;;;;;;;66.00;28.80;;;;;;;;;;5061014;28;20024;-78
2022/12/08 01:40:55;;;;;;;55.20;26.23;;;;;;;;;;5062086;28;20031;-78
2022/12/08 01:43:20;;;;;;;50.35;24.45;;;;;;;;;;5096690;28;20101;-80
2022/12/08 01:45:46;;;;;;;47.47;21.63;;;;;;;;;;5096294;28;20044;-79
2022/12/08 01:48:23;;;;;;;48.42;21.70;;;;;;;;;;5078456;28;20028;-78
2022/12/08 01:50:48;;;;;;;42.30;19.90;;;;;;;;;;5096458;28;20028;-78
2022/12/08 01:53:28;;;;;;;45.80;21.00;;;;;;;;;;5079739;28;20116;-79
2022/12/08 01:55:56;;;;;;;46.55;20.13;;;;;;;;;;5100348;28;20028;-79
2022/12/08 01:58:30;;;;;;;44.50;19.83;;;;;;;;;;5078554;28;20031;-78
2022/12/08 02:00:56;;;;;;;45.28;19.98;;;;;;;;;;5078537;28;20035;-79
2022/12/08 02:03:45;;;;;;;48.22;20.23;;;;;;;;;;5096226;28;20028;-79
2022/12/08 02:06:11;;;;;;;46.08;20.48;;;;;;;;;;5079716;28;20093;-79
2022/12/08 02:08:37;;;;;;;53.30;21.05;;;;;;;;;;5078195;28;20043;-79
2022/12/08 02:11:05;;;;;;;49.35;21.02;;;;;;;;;;5061400;28;20023;-78
2022/12/08 02:13:31;;;;;;;49.65;21.70;;;;;;;;;;5077748;28;20392;-78
2022/12/08 02:16:27;;;;;;;48.45;22.83;;;;;;;;;;5064632;28;20501;-79
2022/12/08 02:19:11;;;;;;;48.17;21.45;;;;;;;;;;5063859;28;20057;-78
2022/12/08 02:21:36;;;;;;;54.20;26.65;;;;;;;;;;5079280;28;20028;-79
2022/12/08 02:24:33;;;;;;;59.13;26.90;;;;;;;;;;5095733;28;20028;-79
2022/12/08 02:27:37;;;;;;;64.60;32.13;;;;;;;;;;5069748;28;20036;-79
2022/12/08 02:30:17;;;;;;;61.80;29.08;;;;;;;;;;5057154;28;20505;-79
2022/12/08 02:32:58;;;;;;;56.05;27.25;;;;;;;;;;5095921;28;20403;-79
2022/12/08 02:35:41;;;;;;;54.13;26.52;;;;;;;;;;5096363;28;20049;-78
2022/12/08 02:38:14;;;;;;;57.10;28.02;;;;;;;;;;5079140;28;20020;-79
2022/12/08 02:40:51;;;;;;;64.82;29.63;;;;;;;;;;5077476;28;20027;-79
2022/12/08 02:43:57;;;;;;;65.80;30.60;;;;;;;;;;5077012;28;20434;-79
2022/12/08 02:46:27;;;;;;;65.53;28.65;;;;;;;;;;5033935;28;20449;-79
2022/12/08 02:48:54;;;;;;;64.25;27.63;;;;;;;;;;5060474;28;20047;-78
2022/12/08 02:51:19;;;;;;;59.60;25.88;;;;;;;;;;5060648;28;20078;-78
2022/12/08 02:53:44;;;;;;;55.90;24.13;;;;;;;;;;5077244;28;20445;-79
2022/12/08 02:56:13;;;;;;;57.55;24.50;;;;;;;;;;5060602;28;20028;-79
2022/12/08 02:58:56;;;;;;;53.30;25.92;;;;;;;;;;5078011;28;20024;-79
2022/12/08 03:01:47;;;;;;;56.05;25.60;;;;;;;;;;5061912;28;20356;-78
2022/12/08 03:04:12;;;;;;;58.13;24.63;;;;;;;;;;5062146;28;20032;-79
2022/12/08 03:06:57;;;;;;;64.68;27.50;;;;;;;;;;5077077;28;20028;-79
2022/12/08 03:09:38;;;;;;;58.40;24.30;;;;;;;;;;5076104;28;20127;-78
2022/12/08 03:12:16;;;;;;;55.63;25.58;;;;;;;;;;5076679;28;20460;-79
2022/12/08 03:14:45;;;;;;;56.88;24.95;;;;;;;;;;5095288;28;20050;-77
2022/12/08 03:17:11;;;;;;;62.35;29.73;;;;;;;;;;5061229;28;20065;-77
2022/12/08 03:19:38;;;;;;;63.85;30.58;;;;;;;;;;5062737;28;20576;-78
2022/12/08 03:22:05;;;;;;;56.53;27.02;;;;;;;;;;5076597;28;20020;-78
2022/12/08 03:24:36;;;;;;;58.75;26.38;;;;;;;;;;5076808;28;20529;-77
2022/12/08 03:27:07;;;;;;;61.47;30.60;;;;;;;;;;5076454;28;20023;-78
2022/12/08 03:29:34;;;;;;;60.10;29.00;;;;;;;;;;5076563;28;20024;-78
2022/12/08 03:32:28;;;;;;;59.10;24.05;;;;;;;;;;5076864;28;20024;-78
2022/12/08 03:34:55;;;;;;;53.10;22.98;;;;;;;;;;5077623;28;20126;-77
2022/12/08 03:37:21;;;;;;;50.67;22.50;;;;;;;;;;5060107;28;20028;-77
2022/12/08 03:39:47;;;;;;;52.58;22.08;;;;;;;;;;5062070;28;20024;-78
2022/12/08 03:42:13;;;;;;;47.25;20.10;;;;;;;;;;5094337;28;20035;-79
2022/12/08 03:44:38;;;;;;;56.10;22.95;;;;;;;;;;5076505;28;20050;-78
2022/12/08 03:47:04;;;;;;;58.63;23.65;;;;;;;;;;5076553;28;20040;-78
2022/12/08 03:49:29;;;;;;;59.55;23.75;;;;;;;;;;5076609;28;20032;-77
2022/12/08 03:51:54;;;;;;;60.63;23.50;;;;;;;;;;5094600;28;20055;-78
2022/12/08 03:54:20;;;;;;;54.17;23.50;;;;;;;;;;5094539;28;20125;-78
2022/12/08 03:56:45;;;;;;;51.67;23.05;;;;;;;;;;5094262;28;20456;-78
2022/12/08 03:59:11;;;;;;;56.20;23.98;;;;;;;;;;5095913;28;20462;-78
2022/12/08 04:01:36;;;;;;;53.45;25.00;;;;;;;;;;5075855;28;20520;-79
2022/12/08 04:04:01;;;;;;;54.33;24.52;;;;;;;;;;5094214;28;20425;-78
2022/12/08 04:06:27;;;;;;;47.85;22.85;;;;;;;;;;5094162;28;20055;-80
2022/12/08 04:08:53;;;;;;;51.90;23.20;;;;;;;;;;5094462;28;20024;-79
2022/12/08 04:11:18;;;;;;;57.10;26.15;;;;;;;;;;5075357;28;20031;-78
2022/12/08 04:13:44;;;;;;;62.25;27.75;;;;;;;;;;5094403;28;20059;-78
2022/12/08 04:16:17;;;;;;;59.28;26.98;;;;;;;;;;5094155;28;20369;-78
2022/12/08 04:18:43;;;;;;;59.88;26.33;;;;;;;;;;5077247;28;20032;-77
2022/12/08 04:21:08;;;;;;;58.40;25.60;;;;;;;;;;5078542;28;20468;-78
2022/12/08 04:23:34;;;;;;;59.95;26.20;;;;;;;;;;5103321;28;20028;-77
2022/12/08 04:25:59;;;;;;;59.65;25.25;;;;;;;;;;5097945;28;20080;-77
2022/12/08 04:28:25;;;;;;;60.80;24.35;;;;;;;;;;5094486;28;20048;-78
2022/12/08 04:30:50;;;;;;;52.38;24.83;;;;;;;;;;5093897;28;20032;-78
2022/12/08 04:33:15;;;;;;;52.03;23.88;;;;;;;;;;5093933;28;20024;-78
2022/12/08 04:35:41;;;;;;;50.95;24.67;;;;;;;;;;5093879;28;20039;-77
2022/12/08 04:38:06;;;;;;;53.67;26.63;;;;;;;;;;5093596;28;20024;-79
2022/12/08 04:40:32;;;;;;;52.55;25.73;;;;;;;;;;5077733;28;20092;-78
2022/12/08 04:42:57;;;;;;;57.35;24.92;;;;;;;;;;5095369;28;20110;-78
2022/12/08 04:45:23;;;;;;;51.55;25.98;;;;;;;;;;5093811;28;20458;-78
2022/12/08 04:47:48;;;;;;;61.45;28.85;;;;;;;;;;5093633;28;20135;-78
2022/12/08 04:50:14;;;;;;;70.93;32.80;;;;;;;;;;5093671;28;20454;-78
2022/12/08 04:52:39;;;;;;;71.95;33.55;;;;;;;;;;5093356;28;20097;-79
2022/12/08 04:55:05;;;;;;;75.20;32.88;;;;;;;;;;5093715;28;20449;-79
2022/12/08 04:57:30;;;;;;;52.85;26.13;;;;;;;;;;5093987;28;20032;-79
2022/12/08 04:59:56;;;;;;;57.97;28.50;;;;;;;;;;5058954;28;20430;-79
2022/12/08 05:02:21;;;;;;;60.85;27.65;;;;;;;;;;5097775;28;20679;-78
2022/12/08 05:04:47;;;;;;;58.05;26.92;;;;;;;;;;5093771;28;20043;-79
2022/12/08 05:07:12;;;;;;;56.70;25.88;;;;;;;;;;5075231;28;20054;-79
2022/12/08 05:09:37;;;;;;;55.47;25.80;;;;;;;;;;5093597;28;20028;-79
2022/12/08 05:12:03;;;;;;;57.03;27.35;;;;;;;;;;5105343;28;20083;-78
2022/12/08 05:14:29;;;;;;;58.15;28.05;;;;;;;;;;5117860;28;20108;-78
2022/12/08 05:16:54;;;;;;;57.75;27.70;;;;;;;;;;5117885;28;20364;-78
2022/12/08 05:19:19;;;;;;;59.13;27.77;;;;;;;;;;5117733;28;20069;-78
2022/12/08 05:21:45;;;;;;;69.72;30.23;;;;;;;;;;5127720;28;20068;-77
2022/12/08 05:24:10;;;;;;;74.32;32.67;;;;;;;;;;5119905;28;20042;-79
2022/12/08 05:26:36;;;;;;;72.35;31.52;;;;;;;;;;5099446;28;20062;-79
2022/12/08 05:29:01;;;;;;;72.60;33.17;;;;;;;;;;5100215;28;20107;-78
2022/12/08 05:31:27;;;;;;;76.70;34.13;;;;;;;;;;5119255;28;20020;-78
2022/12/08 05:33:52;;;;;;;67.55;30.42;;;;;;;;;;5094078;28;20446;-79
2022/12/08 05:36:18;;;;;;;69.22;30.95;;;;;;;;;;5097116;28;20032;-79
2022/12/08 05:38:44;;;;;;;66.28;29.00;;;;;;;;;;5062389;28;20418;-79
2022/12/08 05:41:16;;;;;;;66.20;30.55;;;;;;;;;;5080717;28;20088;-78
2022/12/08 05:43:41;;;;;;;61.22;27.83;;;;;;;;;;5087581;28;20036;-79
2022/12/08 05:46:07;;;;;;;59.10;26.00;;;;;;;;;;5078390;28;20050;-78
2022/12/08 05:48:32;;;;;;;65.97;26.58;;;;;;;;;;5044792;28;20066;-78
2022/12/08 05:50:58;;;;;;;62.78;26.23;;;;;;;;;;5077300;28;20441;-77
2022/12/08 05:53:23;;;;;;;62.00;27.65;;;;;;;;;;5095880;28;20122;-80
2022/12/08 05:55:49;;;;;;;57.92;26.02;;;;;;;;;;5092166;28;20115;-77
2022/12/08 05:58:18;;;;;;;55.03;24.52;;;;;;;;;;5095657;28;20378;-78
2022/12/08 06:00:45;;;;;;;61.38;26.17;;;;;;;;;;5055936;28;20032;-78
2022/12/08 06:03:18;;;;;;;60.35;24.75;;;;;;;;;;5049441;28;20085;-78
2022/12/08 06:05:47;;;;;;;55.25;23.40;;;;;;;;;;5091961;28;20058;-77
2022/12/08 06:11:08;;;;;;;68.07;25.85;;;;;;;;;;5419057;22;22671;-76
2022/12/08 06:13:34;;;;;;;62.42;26.13;;;;;;;;;;4992114;28;20046;-77
2022/12/08 06:16:04;;;;;;;59.95;24.67;;;;;;;;;;5017808;28;20029;-78
2022/12/08 06:18:30;;;;;;;61.03;26.98;;;;;;;;;;5015809;28;20041;-77
2022/12/08 06:21:05;;;;;;;67.40;28.42;;;;;;;;;;5019999;28;20030;-77
2022/12/08 06:23:31;;;;;;;66.65;28.80;;;;;;;;;;4998027;28;20033;-78
2022/12/08 06:26:10;;;;;;;60.67;26.40;;;;;;;;;;5014132;28;20470;-78
2022/12/08 06:28:36;;;;;;;64.53;27.85;;;;;;;;;;5013114;28;20038;-77
2022/12/08 06:31:09;;;;;;;59.67;25.50;;;;;;;;;;5014862;28;20483;-77
2022/12/08 06:33:36;;;;;;;57.55;26.48;;;;;;;;;;5011348;28;20120;-80
2022/12/08 06:36:03;;;;;;;66.50;28.33;;;;;;;;;;5013260;28;20025;-79
2022/12/08 06:38:29;;;;;;;63.65;27.73;;;;;;;;;;5012131;28;20032;-78
2022/12/08 06:40:55;;;;;;;58.83;24.60;;;;;;;;;;5009072;28;20118;-75
2022/12/08 06:43:21;;;;;;;51.47;23.23;;;;;;;;;;5014376;28;20060;-78
2022/12/08 06:45:47;;;;;;;67.50;28.27;;;;;;;;;;5011443;28;20124;-78
2022/12/08 06:48:12;;;;;;;51.67;23.23;;;;;;;;;;5003206;28;20096;-78
2022/12/08 06:50:38;;;;;;;62.97;23.20;;;;;;;;;;5006089;28;20032;-79
2022/12/08 06:53:04;;;;;;;57.78;25.90;;;;;;;;;;5009726;28;20133;-79
2022/12/08 06:55:29;;;;;;;60.75;26.25;;;;;;;;;;4994179;28;20351;-79
2022/12/08 06:57:55;;;;;;;65.18;25.38;;;;;;;;;;5001629;28;20068;-79
2022/12/08 07:00:21;;;;;;;58.88;25.33;;;;;;;;;;5007232;28;20053;-79
2022/12/08 07:02:46;;;;;;;56.45;25.92;;;;;;;;;;5009816;28;20092;-77
2022/12/08 07:05:14;;;;;;;69.15;28.17;;;;;;;;;;5008371;28;20043;-77
2022/12/08 07:07:40;;;;;;;70.28;31.35;;;;;;;;;;4992526;28;20030;-78
2022/12/08 07:10:08;;;;;;;64.32;27.48;;;;;;;;;;5011474;28;20033;-78
2022/12/08 07:12:33;;;;;;;60.10;25.50;;;;;;;;;;5010626;28;20049;-79
2022/12/08 07:14:59;;;;;;;59.05;25.95;;;;;;;;;;5017721;28;20038;-79
2022/12/08 07:17:25;;;;;;;51.40;24.10;;;;;;;;;;4995314;28;20084;-80
2022/12/08 07:19:50;;;;;;;55.42;23.70;;;;;;;;;;5022984;28;20033;-79
2022/12/08 07:22:16;;;;;;;50.35;22.40;;;;;;;;;;5026312;28;20087;-78
2022/12/08 07:24:41;;;;;;;53.38;23.60;;;;;;;;;;5017547;28;20073;-78
2022/12/08 07:27:06;;;;;;;49.63;22.70;;;;;;;;;;5022981;28;20033;-79
2022/12/08 07:29:32;;;;;;;47.55;23.33;;;;;;;;;;5022046;28;20508;-78
2022/12/08 07:31:57;;;;;;;48.22;22.23;;;;;;;;;;5020221;28;20343;-77
2022/12/08 07:34:23;;;;;;;54.25;22.40;;;;;;;;;;5014213;28;20033;-78
2022/12/08 07:36:48;;;;;;;50.92;23.67;;;;;;;;;;5020365;28;20074;-77
2022/12/08 07:39:14;;;;;;;51.38;24.10;;;;;;;;;;5025620;28;20044;-77
2022/12/08 07:41:39;;;;;;;53.58;24.80;;;;;;;;;;5026411;28;20398;-77
2022/12/08 07:44:05;;;;;;;47.25;21.65;;;;;;;;;;5033632;28;20040;-79
2022/12/08 07:46:30;;;;;;;47.00;22.70;;;;;;;;;;5034291;28;20025;-78
2022/12/08 07:48:56;;;;;;;51.78;24.05;;;;;;;;;;5027353;28;20463;-78
2022/12/08 07:51:21;;;;;;;50.95;24.80;;;;;;;;;;5002435;28;20363;-76
2022/12/08 07:53:47;;;;;;;47.20;22.40;;;;;;;;;;5020933;28;20029;-78
2022/12/08 07:56:13;;;;;;;47.83;22.95;;;;;;;;;;5030578;28;20037;-79
2022/12/08 07:58:39;;;;;;;61.42;27.17;;;;;;;;;;5032398;28;20037;-78
2022/12/08 08:01:04;;;;;;;60.42;27.65;;;;;;;;;;5034428;28;20083;-77
2022/12/08 08:03:30;;;;;;;66.10;28.23;;;;;;;;;;5032333;28;20066;-78
2022/12/08 08:06:04;;;;;;;63.88;28.65;;;;;;;;;;5030453;28;20056;-79
2022/12/08 08:08:30;;;;;;;62.13;28.48;;;;;;;;;;5034566;28;20030;-78
2022/12/08 08:10:55;;;;;;;63.55;29.00;;;;;;;;;;5029895;28;20084;-78
2022/12/08 08:13:21;;;;;;;72.25;32.42;;;;;;;;;;5026868;28;20049;-77
2022/12/08 08:15:46;;;;;;;77.20;33.63;;;;;;;;;;5027727;28;20091;-77
2022/12/08 08:18:12;;;;;;;71.22;32.42;;;;;;;;;;5025740;28;20037;-78
2022/12/08 08:20:37;;;;;;;71.93;34.05;;;;;;;;;;5033413;28;20140;-77
2022/12/08 08:23:03;;;;;;;80.60;35.45;;;;;;;;;;5031372;28;20051;-77
2022/12/08 08:25:28;;;;;;;76.22;35.30;;;;;;;;;;5036747;28;20056;-78
2022/12/08 08:27:54;;;;;;;76.70;34.30;;;;;;;;;;5035772;28;20508;-78
2022/12/08 08:30:19;;;;;;;73.07;33.30;;;;;;;;;;5030504;28;20044;-78
2022/12/08 08:32:45;;;;;;;75.13;35.20;;;;;;;;;;5033625;28;20101;-78
2022/12/08 08:35:10;;;;;;;69.70;31.17;;;;;;;;;;5020501;28;20107;-77
2022/12/08 08:37:36;;;;;;;59.17;29.42;;;;;;;;;;5005916;28;20080;-78
2022/12/08 08:40:02;;;;;;;66.95;31.77;;;;;;;;;;5030567;28;20041;-78
2022/12/08 08:42:27;;;;;;;66.32;31.42;;;;;;;;;;5031772;28;20037;-77
2022/12/08 08:44:53;;;;;;;62.38;29.55;;;;;;;;;;5031054;28;20033;-78
2022/12/08 08:47:18;;;;;;;56.60;27.00;;;;;;;;;;5034502;28;20041;-78
2022/12/08 08:49:44;;;;;;;58.13;26.30;;;;;;;;;;5036732;28;20130;-77
2022/12/08 08:52:10;;;;;;;47.60;24.55;;;;;;;;;;5033983;28;20458;-77
2022/12/08 08:54:35;;;;;;;50.92;25.00;;;;;;;;;;5011377;28;20034;-78
2022/12/08 08:57:01;;;;;;;53.97;26.65;;;;;;;;;;5014329;28;20395;-78
2022/12/08 08:59:27;;;;;;;55.33;24.98;;;;;;;;;;5023584;28;20037;-78
2022/12/08 09:01:53;;;;;;;51.15;24.85;;;;;;;;;;5023589;28;20117;-79
2022/12/08 09:04:19;;;;;;;60.25;28.98;;;;;;;;;;5049168;28;20036;-78
2022/12/08 09:06:45;;;;;;;69.47;32.15;;;;;;;;;;5050148;28;20029;-76
2022/12/08 09:09:11;;;;;;;80.78;35.97;;;;;;;;;;5032649;28;20119;-76
2022/12/08 09:11:36;;;;;;;60.15;29.05;;;;;;;;;;5036914;28;20527;-77
2022/12/08 09:14:02;;;;;;;55.22;26.85;;;;;;;;;;5054553;28;20025;-78
2022/12/08 09:16:27;;;;;;;54.45;25.48;;;;;;;;;;5053541;28;20029;-77
2022/12/08 09:18:53;;;;;;;63.00;26.08;;;;;;;;;;5052388;28;20089;-77
2022/12/08 09:21:21;;;;;;;50.25;24.58;;;;;;;;;;5034392;28;20032;-77
2022/12/08 09:23:47;;;;;;;65.95;32.10;;;;;;;;;;5019324;28;20466;-77
2022/12/08 09:26:13;;;;;;;66.60;31.73;;;;;;;;;;5035501;28;20112;-78
2022/12/08 09:28:38;;;;;;;59.83;29.50;;;;;;;;;;5053484;28;20166;-77
2022/12/08 09:31:04;;;;;;;62.85;29.50;;;;;;;;;;5054458;28;20040;-77
2022/12/08 09:33:29;;;;;;;40.03;20.35;;;;;;;;;;5037047;28;20031;-78
2022/12/08 09:35:55;;;;;;;38.92;20.42;;;;;;;;;;5040798;28;20033;-77
2022/12/08 09:38:20;;;;;;;39.80;19.45;;;;;;;;;;5030930;28;20033;-78
2022/12/08 09:40:52;;;;;;;43.30;21.65;;;;;;;;;;5057379;28;20029;-78
2022/12/08 09:43:21;;;;;;;47.13;22.40;;;;;;;;;;5039900;28;20028;-78
2022/12/08 09:45:46;;;;;;;45.53;22.38;;;;;;;;;;5047372;28;20045;-78
2022/12/08 09:48:14;;;;;;;52.40;23.63;;;;;;;;;;5014595;28;20029;-76
2022/12/08 09:50:44;;;;;;;55.25;25.95;;;;;;;;;;5017649;28;20032;-78
2022/12/08 09:53:24;;;;;;;61.20;28.38;;;;;;;;;;5015411;28;20033;-77
2022/12/08 09:56:04;;;;;;;51.72;25.05;;;;;;;;;;5014391;28;20461;-76
2022/12/08 09:58:43;;;;;;;59.47;27.50;;;;;;;;;;5030058;28;20118;-77
2022/12/08 10:01:11;;;;;;;46.40;23.73;;;;;;;;;;5045893;28;20034;-78
2022/12/08 10:03:37;;;;;;;55.75;26.08;;;;;;;;;;5017468;28;20033;-80
2022/12/08 10:06:26;;;;;;;55.20;26.42;;;;;;;;;;5053025;28;20500;-78
2022/12/08 10:08:54;;;;;;;50.40;23.50;;;;;;;;;;5027700;28;20033;-76
2022/12/08 10:11:25;;;;;;;48.92;23.02;;;;;;;;;;5053268;28;20148;-78
2022/12/08 10:14:02;;;;;;;50.78;24.02;;;;;;;;;;5029874;28;20037;-77
2022/12/08 10:16:34;;;;;;;50.35;24.20;;;;;;;;;;5022670;28;20148;-77
2022/12/08 10:19:07;;;;;;;56.38;25.85;;;;;;;;;;5016490;28;20052;-75
2022/12/08 10:21:32;;;;;;;52.72;25.58;;;;;;;;;;5014792;28;20032;-77
2022/12/08 10:24:02;;;;;;;59.35;26.02;;;;;;;;;;5034577;28;20032;-76
2022/12/08 10:26:31;;;;;;;51.88;24.17;;;;;;;;;;5012853;28;20537;-77
2022/12/08 10:29:00;;;;;;;54.95;24.95;;;;;;;;;;5046638;28;20060;-76
2022/12/08 10:31:26;;;;;;;48.78;24.45;;;;;;;;;;5029784;28;20359;-75
2022/12/08 10:33:57;;;;;;;48.03;23.08;;;;;;;;;;5049684;28;20531;-77
2022/12/08 10:36:43;;;;;;;52.28;24.27;;;;;;;;;;5017398;28;20107;-76
2022/12/08 10:39:31;;;;;;;48.35;22.23;;;;;;;;;;5035982;28;20078;-78
2022/12/08 10:42:20;;;;;;;50.78;24.85;;;;;;;;;;5033321;28;20025;-79
2022/12/08 10:45:07;;;;;;;53.83;23.53;;;;;;;;;;4998717;28;20047;-78
2022/12/08 10:47:35;;;;;;;51.55;20.92;;;;;;;;;;5022653;28;20095;-78
2022/12/08 10:50:09;;;;;;;43.33;20.90;;;;;;;;;;5014428;28;20072;-77
2022/12/08 10:52:38;;;;;;;48.22;22.67;;;;;;;;;;5027518;28;20135;-79
2022/12/08 10:55:18;;;;;;;46.27;20.73;;;;;;;;;;5028368;28;20098;-77
2022/12/08 10:57:44;;;;;;;47.38;21.58;;;;;;;;;;5018162;28;20355;-76
2022/12/08 11:00:13;;;;;;;43.05;22.08;;;;;;;;;;5033886;28;20120;-78
2022/12/08 11:03:00;;;;;;;47.13;23.33;;;;;;;;;;5015362;28;20025;-78
2022/12/08 11:05:33;;;;;;;51.13;24.15;;;;;;;;;;5018130;28;20040;-78
2022/12/08 11:07:58;;;;;;;49.63;23.42;;;;;;;;;;5022882;28;20036;-78
2022/12/08 11:10:44;;;;;;;53.25;24.90;;;;;;;;;;5018242;28;20481;-77
2022/12/08 11:13:25;;;;;;;48.53;23.35;;;;;;;;;;5034551;28;20056;-78
2022/12/08 11:15:51;;;;;;;50.45;23.77;;;;;;;;;;5036149;28;20075;-78
2022/12/08 11:18:25;;;;;;;49.45;22.65;;;;;;;;;;5003829;28;20029;-78
2022/12/08 11:21:06;;;;;;;51.05;23.42;;;;;;;;;;5027807;28;20040;-78
2022/12/08 11:23:33;;;;;;;46.40;21.40;;;;;;;;;;5016915;28;20450;-78
2022/12/08 11:26:03;;;;;;;48.53;23.08;;;;;;;;;;5017460;28;20128;-78
2022/12/08 11:28:28;;;;;;;46.88;22.00;;;;;;;;;;5009747;28;20115;-78
2022/12/08 11:30:57;;;;;;;47.30;22.63;;;;;;;;;;5039966;28;20033;-78
2022/12/08 11:33:24;;;;;;;46.13;22.30;;;;;;;;;;5016479;28;20029;-76
2022/12/08 11:36:00;;;;;;;44.60;21.30;;;;;;;;;;5034279;28;20338;-78
2022/12/08 11:38:29;;;;;;;44.22;20.52;;;;;;;;;;5022702;28;20037;-77
2022/12/08 11:41:08;;;;;;;45.40;21.98;;;;;;;;;;5002071;28;20450;-77
2022/12/08 11:43:33;;;;;;;34.45;17.70;;;;;;;;;;5013947;28;20025;-78
2022/12/08 11:46:09;;;;;;;33.45;15.85;;;;;;;;;;5037756;28;20037;-77
2022/12/08 11:48:45;;;;;;;30.50;16.15;;;;;;;;;;5020862;28;20029;-77
2022/12/08 11:51:25;;;;;;;58.38;25.98;;;;;;;;;;5038304;28;20111;-77
2022/12/08 11:54:10;;;;;;;;;;;;;;;;;;5037141;28;20143;-76
2022/12/08 11:56:37;;;;;;;43.58;21.80;;;;;;;;;;5039149;28;19916;-78
2022/12/08 11:59:13;;;;;;;41.60;21.67;;;;;;;;;;5017458;28;20052;-76
2022/12/08 12:01:39;;;;;;;55.63;28.65;;;;;;;;;;5026889;28;20512;-78
2022/12/08 12:04:16;;;;;;;44.75;23.33;;;;;;;;;;5038023;28;20033;-79
2022/12/08 12:06:54;;;;;;;37.83;20.08;;;;;;;;;;5030555;28;20036;-78
2022/12/08 12:09:22;;;;;;;37.35;18.88;;;;;;;;;;5045310;28;20037;-75
2022/12/08 12:15:00;;;;;;;34.22;17.85;;;;;;;;;;5042586;28;20059;-76
2022/12/08 12:17:29;;;;;;;28.38;15.48;;;;;;;;;;5037535;28;20496;-76
2022/12/08 12:19:55;;;;;;;29.08;16.42;;;;;;;;;;5036032;28;20025;-78
2022/12/08 12:22:21;;;;;;;30.75;16.60;;;;;;;;;;5015009;28;20036;-77
2022/12/08 12:24:47;;;;;;;30.13;16.55;;;;;;;;;;4995470;28;20462;-78
2022/12/08 12:27:13;;;;;;;28.13;15.50;;;;;;;;;;5013223;28;20041;-75
2022/12/08 12:29:46;;;;;;;29.02;15.45;;;;;;;;;;5014440;28;20037;-76
2022/12/08 12:32:11;;;;;;;29.45;15.63;;;;;;;;;;5013049;28;20037;-76
2022/12/08 12:34:51;;;;;;;25.95;14.80;;;;;;;;;;5003725;28;20037;-77
2022/12/08 12:37:24;;;;;;;25.88;14.05;;;;;;;;;;5010496;28;20033;-77
2022/12/08 12:39:57;;;;;;;26.92;14.55;;;;;;;;;;4993367;28;20029;-77
2022/12/08 12:43:08;;;;;;;28.05;14.45;;;;;;;;;;5026882;28;20049;-77
2022/12/08 12:45:34;;;;;;;27.40;15.27;;;;;;;;;;5025967;28;20132;-77
2022/12/08 12:47:59;;;;;;;33.65;15.50;;;;;;;;;;4992710;28;20381;-78
2022/12/08 12:50:31;;;;;;;27.38;15.02;;;;;;;;;;5030804;28;20026;-78
2022/12/08 12:53:15;;;;;;;29.52;15.93;;;;;;;;;;5029589;28;20209;-78
2022/12/08 12:55:44;;;;;;;30.45;16.23;;;;;;;;;;5014584;28;20053;-78
2022/12/08 12:58:30;;;;;;;29.20;16.10;;;;;;;;;;5029060;28;20033;-78
2022/12/08 13:01:11;;;;;;;28.85;15.98;;;;;;;;;;5029127;28;20032;-77
2022/12/08 13:03:40;;;;;;;31.70;16.83;;;;;;;;;;5031616;28;20118;-78
2022/12/08 13:06:06;;;;;;;30.73;16.52;;;;;;;;;;5032264;28;20025;-78
2022/12/08 13:08:31;;;;;;;27.17;16.50;;;;;;;;;;5014015;28;20028;-77
2022/12/08 13:11:00;;;;;;;36.58;17.58;;;;;;;;;;5032425;28;20038;-78
2022/12/08 13:13:25;;;;;;;33.35;18.75;;;;;;;;;;5011495;28;20124;-79
2022/12/08 13:15:55;;;;;;;33.85;19.23;;;;;;;;;;5013848;28;20443;-79
2022/12/08 13:18:27;;;;;;;38.15;20.38;;;;;;;;;;5012702;28;20026;-79
2022/12/08 13:21:13;;;;;;;30.52;17.92;;;;;;;;;;4996729;28;20034;-79
2022/12/08 13:24:11;;;;;;;27.63;15.27;;;;;;;;;;5013575;28;20033;-79
2022/12/08 13:26:44;;;;;;;34.72;19.67;;;;;;;;;;5012332;28;20136;-76
2022/12/08 13:29:21;;;;;;;35.38;18.50;;;;;;;;;;5011708;28;20050;-78
2022/12/08 13:31:56;;;;;;;42.50;21.05;;;;;;;;;;5013890;28;20061;-79
2022/12/08 13:34:50;;;;;;;43.58;21.75;;;;;;;;;;5015217;28;20038;-78
2022/12/08 13:37:41;;;;;;;34.70;19.13;;;;;;;;;;5017160;28;20038;-79
2022/12/08 13:40:17;;;;;;;43.15;19.60;;;;;;;;;;4999219;28;20042;-78
2022/12/08 13:42:45;;;;;;;36.88;19.08;;;;;;;;;;5015579;28;20029;-79
2022/12/08 13:45:11;;;;;;;39.55;20.65;;;;;;;;;;4999348;28;20040;-79
2022/12/08 13:47:58;;;;;;;43.15;21.60;;;;;;;;;;5016990;28;20026;-79
2022/12/08 13:50:27;;;;;;;41.58;22.00;;;;;;;;;;5017020;28;20446;-78
2022/12/08 13:53:00;;;;;;;46.63;23.20;;;;;;;;;;5015430;28;20025;-78
2022/12/08 13:55:39;;;;;;;46.13;23.63;;;;;;;;;;4998840;28;20080;-79
2022/12/08 13:58:04;;;;;;;44.38;22.73;;;;;;;;;;5015571;28;20030;-79
2022/12/08 14:00:30;;;;;;;47.25;23.75;;;;;;;;;;5015224;28;20041;-78
2022/12/08 14:02:57;;;;;;;50.05;23.70;;;;;;;;;;5015274;28;20030;-79
2022/12/08 14:05:23;;;;;;;46.50;22.60;;;;;;;;;;5016452;28;20038;-80
2022/12/08 14:07:52;;;;;;;44.38;22.55;;;;;;;;;;5016427;28;20417;-78
2022/12/08 14:10:20;;;;;;;51.47;25.17;;;;;;;;;;5015133;28;20065;-79
2022/12/08 14:12:46;;;;;;;49.40;25.70;;;;;;;;;;4998767;28;20054;-79
2022/12/08 14:15:12;;;;;;;40.65;22.45;;;;;;;;;;5015007;28;20112;-79
2022/12/08 14:17:38;;;;;;;50.03;24.08;;;;;;;;;;4998748;28;20423;-80
2022/12/08 14:20:23;;;;;;;38.92;20.00;;;;;;;;;;4998591;28;20060;-78
2022/12/08 14:22:50;;;;;;;40.80;19.95;;;;;;;;;;5016021;28;20064;-79
2022/12/08 14:25:15;;;;;;;39.05;20.42;;;;;;;;;;5014275;28;20034;-79
2022/12/08 14:27:41;;;;;;;36.55;18.40;;;;;;;;;;4998209;28;20021;-78
2022/12/08 14:30:08;;;;;;;33.00;18.27;;;;;;;;;;5014954;28;20069;-80
2022/12/08 14:32:35;;;;;;;42.38;19.58;;;;;;;;;;5014954;28;20360;-79
2022/12/08 14:35:07;;;;;;;37.83;19.88;;;;;;;;;;5015885;28;20025;-78
2022/12/08 14:37:42;;;;;;;37.47;19.52;;;;;;;;;;5014544;28;20079;-79
2022/12/08 14:40:17;;;;;;;39.63;19.13;;;;;;;;;;5014266;28;20026;-78